Time;durP1;ratioP1;P1;durP2;ratioP2;P2;SDS_P1;SDS_P2;PMS_P1;PMS_P2;Temp;Humidity;BMP_temperature;BMP_pressure;BME280_temperature;BME280_humidity;BME280_pressure;Samples;Min_cycle;Max_cycle;Signal;HPM_P1;HPM_P2
2022/05/23 00:04:47;;;;;;;7.87;3.67;;;;;;;9.01;87.72;100392.41;3340258;85;98612;-78
2022/05/23 00:09:50;;;;;;;6.95;3.42;;;;;;;8.95;87.62;100393.88;3338340;85;98924;-79
2022/05/23 00:14:52;;;;;;;8.03;3.10;;;;;;;8.90;87.03;100387.32;3325523;85;98824;-80
2022/05/23 00:19:53;;;;;;;7.40;3.37;;;;;;;8.85;87.68;100389.80;3333624;86;28483;-80
2022/05/23 00:24:54;;;;;;;6.70;2.90;;;;;;;8.78;87.00;100388.88;3298110;86;98503;-80
2022/05/23 00:29:55;;;;;;;5.70;3.00;;;;;;;8.72;87.07;100392.49;3323263;85;99023;-80
2022/05/23 00:40:38;;;;;;;5.50;2.73;;;;;;;8.59;87.33;100388.34;3330741;86;98505;-80
2022/05/23 00:45:58;;;;;;;4.53;2.70;;;;;;;8.51;87.57;100385.24;3336387;86;98907;-81
2022/05/23 00:51:07;;;;;;;5.53;2.70;;;;;;;8.43;87.47;100378.63;3356854;86;98993;-80
2022/05/23 00:56:11;;;;;;;7.83;2.60;;;;;;;8.36;87.40;100374.38;3325451;85;98601;-80
2022/05/23 01:01:15;;;;;;;5.73;2.50;;;;;;;8.29;87.75;100381.11;3322026;86;98256;-81
2022/05/23 01:06:17;;;;;;;4.90;2.30;;;;;;;8.22;87.70;100379.02;3296754;85;98753;-80
2022/05/23 01:11:19;;;;;;;5.03;2.33;;;;;;;8.17;87.73;100390.24;3349929;85;98771;-81
2022/05/23 01:16:24;;;;;;;6.30;2.47;;;;;;;8.12;87.85;100396.02;3342341;85;98884;-80
2022/05/23 01:21:48;;;;;;;5.63;2.53;;;;;;;8.06;88.10;100393.91;3341175;86;98526;-80
2022/05/23 01:26:51;;;;;;;6.00;2.97;;;;;;;8.01;87.98;100390.12;3321720;85;98539;-80
2022/05/23 01:31:57;;;;;;;6.27;2.67;;;;;;;7.96;87.72;100393.14;3312889;86;98603;-80
2022/05/23 01:37:00;;;;;;;6.43;2.77;;;;;;;7.91;87.25;100390.69;3341072;85;98303;-80
2022/05/23 01:42:01;;;;;;;5.12;2.30;;;;;;;7.84;87.39;100385.03;3328911;85;98407;-81
2022/05/23 01:47:12;;;;;;;7.23;3.00;;;;;;;7.78;86.82;100383.73;3345896;85;98560;-81
2022/05/23 01:52:13;;;;;;;6.55;2.72;;;;;;;7.74;86.96;100377.41;3323195;85;98962;-82
2022/05/23 01:57:17;;;;;;;5.20;2.57;;;;;;;7.68;87.12;100364.56;3329548;85;99022;-81
2022/05/23 02:02:19;;;;;;;7.37;3.63;;;;;;;7.63;87.23;100357.98;3333955;86;99249;-80
2022/05/23 02:07:21;;;;;;;7.47;3.27;;;;;;;7.62;87.19;100352.86;3306561;87;26026;-80
2022/05/23 02:12:22;;;;;;;8.20;3.53;;;;;;;7.58;86.77;100338.33;3336779;85;98661;-81
2022/05/23 02:17:24;;;;;;;10.83;4.43;;;;;;;7.58;87.25;100337.73;3332488;85;98858;-80
2022/05/23 02:22:25;;;;;;;10.28;4.97;;;;;;;7.62;87.70;100330.39;3348680;85;99042;-80
2022/05/23 02:27:28;;;;;;;9.03;4.30;;;;;;;7.66;87.85;100329.09;3308607;86;98711;-80
2022/05/23 02:32:30;;;;;;;12.13;5.10;;;;;;;7.68;88.42;100333.05;3318554;86;98734;-81
2022/05/23 02:37:32;;;;;;;10.27;4.87;;;;;;;7.72;89.04;100327.65;3330009;84;33277;-80
2022/05/23 02:42:34;;;;;;;11.70;5.33;;;;;;;7.73;89.06;100328.66;3329602;85;98940;-80
2022/05/23 02:47:36;;;;;;;10.73;5.77;;;;;;;7.75;88.88;100320.87;3341637;85;97816;-80
2022/05/23 02:52:39;;;;;;;10.10;5.08;;;;;;;7.78;89.39;100326.20;3297945;84;99019;-80
2022/05/23 02:57:41;;;;;;;10.28;5.17;;;;;;;7.80;89.43;100318.44;3340347;85;99065;-80
2022/05/23 03:08:02;;;;;;;9.83;4.90;;;;;;;7.73;89.63;100303.20;3330831;85;26512;-80
2022/05/23 03:13:05;;;;;;;10.13;5.77;;;;;;;7.84;89.97;100324.76;3317868;86;98759;-80
2022/05/23 03:18:07;;;;;;;11.83;5.67;;;;;;;7.86;90.82;100321.87;3349537;85;98908;-80
2022/05/23 03:28:28;;;;;;;14.43;6.23;;;;;;;7.92;90.85;100318.28;3345809;85;99284;-80
2022/05/23 03:33:29;;;;;;;11.10;5.70;;;;;;;7.95;91.12;100324.39;3350831;85;99055;-80
2022/05/23 03:38:29;;;;;;;13.13;6.23;;;;;;;7.96;91.44;100332.86;3323647;86;99105;-80
2022/05/23 03:43:30;;;;;;;11.80;6.33;;;;;;;7.99;91.80;100340.34;3333770;85;98555;-80
2022/05/23 03:48:32;;;;;;;12.18;6.00;;;;;;;8.03;92.34;100355.72;3312672;86;98544;-80
2022/05/23 03:53:34;;;;;;;12.03;7.03;;;;;;;8.08;92.33;100355.39;3338165;85;98956;-80
2022/05/23 03:58:35;;;;;;;11.87;6.17;;;;;;;8.14;92.67;100361.39;3347763;86;99142;-80
2022/05/23 04:03:36;;;;;;;13.03;6.63;;;;;;;8.19;92.51;100367.95;3339054;86;98859;-79
2022/05/23 04:08:37;;;;;;;14.07;6.83;;;;;;;8.24;92.81;100378.66;3309367;85;98729;-80
2022/05/23 04:13:38;;;;;;;14.53;6.73;;;;;;;8.32;93.14;100374.32;3336446;85;99247;-80
2022/05/23 04:18:39;;;;;;;12.17;7.23;;;;;;;8.39;92.94;100370.93;3338625;86;99139;-80
2022/05/23 04:23:40;;;;;;;14.95;7.17;;;;;;;8.49;93.68;100376.59;3331369;85;99262;-80
2022/05/23 04:28:41;;;;;;;13.90;6.87;;;;;;;8.62;94.26;100371.73;3350974;85;99113;-79
2022/05/23 04:39:02;;;;;;;12.93;6.80;;;;;;;8.89;95.09;100374.77;3310313;87;98731;-79
2022/05/23 04:44:03;;;;;;;12.80;6.13;;;;;;;9.02;94.46;100385.19;3336987;85;98331;-80
2022/05/23 04:54:23;;;;;;;12.07;6.62;;;;;;;9.37;94.39;100404.18;3331175;86;99044;-80
2022/05/23 04:59:24;;;;;;;13.97;6.57;;;;;;;9.52;93.92;100400.46;3330987;86;98783;-79
2022/05/23 05:04:25;;;;;;;12.30;6.03;;;;;;;9.67;92.81;100403.63;3343514;85;99137;-80
2022/05/23 05:09:26;;;;;;;11.70;6.37;;;;;;;9.84;92.84;100402.51;3347792;85;98769;-79
2022/05/23 05:14:27;;;;;;;11.37;5.57;;;;;;;10.05;91.65;100411.07;3324192;85;98952;-78
2022/05/23 05:19:28;;;;;;;12.57;6.73;;;;;;;10.33;89.89;100409.23;3334210;86;33792;-80
2022/05/23 05:24:32;;;;;;;12.77;6.03;;;;;;;10.70;89.46;100421.05;3316997;86;98995;-79
2022/05/23 05:29:32;;;;;;;10.17;5.10;;;;;;;11.16;87.44;100408.48;3340387;86;99490;-79
2022/05/23 05:34:48;;;;;;;12.47;5.00;;;;;;;11.72;86.05;100415.84;3337752;85;99727;-79
2022/05/23 05:39:52;;;;;;;10.58;5.65;;;;;;;12.37;82.08;100426.22;3340240;86;99125;-80
2022/05/23 05:44:59;;;;;;;13.95;5.00;;;;;;;13.13;82.10;100421.47;3328682;86;98993;-80
2022/05/23 05:50:11;;;;;;;12.00;4.53;;;;;;;13.85;78.89;100424.56;3334729;86;26704;-80
2022/05/23 05:55:12;;;;;;;7.43;4.70;;;;;;;14.54;77.49;100423.34;3344191;86;99208;-80
2022/05/23 06:00:15;;;;;;;7.77;4.20;;;;;;;15.20;75.35;100429.08;3333450;85;99114;-81
2022/05/23 06:05:17;;;;;;;10.08;4.53;;;;;;;16.04;74.45;100424.14;3311169;86;99255;-80
2022/05/23 06:15:39;;;;;;;9.17;4.90;;;;;;;17.30;68.83;100423.81;3324278;86;98963;-80
2022/05/23 06:20:40;;;;;;;9.50;3.90;;;;;;;17.26;62.67;100418.91;3314360;86;99313;-80
2022/05/23 06:25:41;;;;;;;9.97;4.00;;;;;;;17.54;64.84;100424.05;3310082;86;26869;-81
2022/05/23 06:30:43;;;;;;;9.20;3.70;;;;;;;18.29;63.50;100416.05;3351102;86;99291;-80
2022/05/23 06:35:44;;;;;;;7.80;4.27;;;;;;;18.48;61.04;100417.28;3352114;86;98725;-82
2022/05/23 06:40:50;;;;;;;8.67;4.03;;;;;;;19.11;62.63;100418.62;3337283;85;99214;-81
2022/05/23 06:45:51;;;;;;;9.33;4.33;;;;;;;19.74;61.26;100419.86;3333689;85;99199;-81
2022/05/23 06:50:52;;;;;;;8.57;4.20;;;;;;;19.95;58.83;100410.28;3331197;86;98922;-81
2022/05/23 06:55:56;;;;;;;7.63;3.90;;;;;;;20.14;56.06;100401.02;3337779;86;26302;-81
2022/05/23 07:00:57;;;;;;;9.40;3.77;;;;;;;20.47;57.72;100396.06;3330001;86;99151;-81
2022/05/23 07:16:37;;;;;;;11.20;4.45;;;;;;;21.29;53.61;100374.28;3339007;85;98870;-81
2022/05/23 07:21:38;;;;;;;9.73;4.00;;;;;;;21.33;53.05;100360.95;3330474;86;99411;-82
2022/05/23 07:26:38;;;;;;;8.45;4.30;;;;;;;21.46;53.20;100356.09;3345952;86;99229;-81
2022/05/23 07:31:39;;;;;;;8.87;4.37;;;;;;;21.72;52.32;100351.22;3326748;87;99180;-81
2022/05/23 07:36:40;;;;;;;12.58;4.92;;;;;;;21.77;52.05;100352.84;3332248;85;98785;-81
2022/05/23 07:41:43;;;;;;;7.73;3.97;;;;;;;21.72;50.86;100355.42;3327337;85;98965;-82
2022/05/23 07:46:44;;;;;;;8.93;4.55;;;;;;;21.24;48.02;100351.66;3338505;86;99337;-80
2022/05/23 07:51:45;;;;;;;8.90;3.92;;;;;;;21.15;50.06;100350.19;3312564;85;99410;-83
2022/05/23 08:02:09;;;;;;;10.32;4.97;;;;;;;20.97;50.33;100349.36;3323627;85;99112;-81
2022/05/23 08:07:12;;;;;;;7.28;3.90;;;;;;;21.09;50.46;100332.40;3342682;85;99156;-80
2022/05/23 08:12:16;;;;;;;10.98;4.53;;;;;;;21.40;48.46;100327.11;3327619;84;98486;-80
2022/05/23 08:17:17;;;;;;;7.05;3.15;;;;;;;21.33;48.96;100315.37;3319045;86;99740;-80
2022/05/23 08:22:19;;;;;;;7.10;3.40;;;;;;;21.50;47.15;100317.56;3331841;86;98966;-80
2022/05/23 08:27:20;;;;;;;8.80;3.67;;;;;;;22.28;48.46;100314.12;3329231;86;99295;-80
2022/05/23 08:32:21;;;;;;;6.90;3.25;;;;;;;23.11;45.98;100314.78;3329092;86;99310;-80
2022/05/23 08:37:22;;;;;;;7.37;3.50;;;;;;;23.51;46.08;100321.09;3351124;85;26093;-80
2022/05/23 08:42:31;;;;;;;7.70;3.85;;;;;;;24.47;45.21;100302.25;3333854;85;99058;-80
2022/05/23 08:47:49;;;;;;;7.62;3.95;;;;;;;24.61;43.18;100300.18;3339350;85;99077;-81
2022/05/23 08:53:08;;;;;;;9.65;3.98;;;;;;;25.44;43.92;100300.81;3341438;86;99167;-80
2022/05/23 08:58:26;;;;;;;4.80;2.37;;;;;;;26.40;43.18;100295.22;3337029;86;99312;-80
2022/05/23 09:03:39;;;;;;;5.95;2.77;;;;;;;26.67;39.14;100292.72;3338118;86;98944;-79
2022/05/23 09:08:48;;;;;;;5.53;3.00;;;;;;;26.64;37.99;100276.78;3349678;86;98943;-81
2022/05/23 09:13:49;;;;;;;6.03;2.72;;;;;;;26.90;39.99;100281.27;3341589;85;98555;-81
2022/05/23 09:18:55;;;;;;;8.45;2.90;;;;;;;27.54;39.33;100269.80;3338257;85;99152;-81
2022/05/23 09:23:56;;;;;;;7.65;4.00;;;;;;;28.18;38.48;100262.50;3324269;86;99160;-78
2022/05/23 09:28:57;;;;;;;10.03;3.52;;;;;;;28.28;37.00;100258.22;3358366;86;98839;-79
2022/05/23 09:33:59;;;;;;;9.20;2.67;;;;;;;28.37;36.46;100257.27;3331159;87;99010;-81
2022/05/23 09:39:05;;;;;;;6.20;3.37;;;;;;;28.89;36.83;100250.20;3341133;85;98993;-80
2022/05/23 09:49:31;;;;;;;6.58;3.40;;;;;;;29.47;35.18;100230.37;3328109;85;98524;-81
2022/05/23 09:54:52;;;;;;;6.62;3.65;;;;;;;29.47;34.96;100228.96;3347928;85;98720;-80
2022/05/23 09:59:59;;;;;;;7.65;3.12;;;;;;;29.67;32.68;100219.49;3362479;85;98800;-78
2022/05/23 10:05:01;;;;;;;5.85;3.20;;;;;;;28.92;33.90;100218.00;3341172;85;99502;-79
2022/05/23 10:10:20;;;;;;;6.25;3.30;;;;;;;29.41;32.84;100211.78;3358303;86;99354;-78
2022/05/23 10:15:28;;;;;;;6.53;3.10;;;;;;;28.69;32.87;100208.62;3352399;85;99601;-79
2022/05/23 10:20:40;;;;;;;4.40;2.62;;;;;;;28.87;34.14;100201.77;3320155;87;26737;-79
2022/05/23 10:26:01;;;;;;;6.28;3.20;;;;;;;29.67;33.48;100210.36;3340244;85;98695;-79
2022/05/23 10:31:19;;;;;;;5.08;2.00;;;;;;;29.99;31.96;100205.22;3335190;85;98899;-79
2022/05/23 10:36:24;;;;;;;6.58;2.87;;;;;;;29.99;31.96;100205.22;3353274;86;98762;-81
2022/05/23 10:46:58;;;;;;;4.12;1.87;;;;;;;29.78;31.51;100190.52;3332051;86;98950;-79
2022/05/23 10:52:05;;;;;;;5.33;2.15;;;;;;;29.61;31.71;100193.19;3337259;85;99193;-79
2022/05/23 10:58:02;;;;;;;3.55;1.90;;;;;;;29.65;32.03;100182.37;3359909;85;99126;-78
2022/05/23 11:03:20;;;;;;;5.33;2.77;;;;;;;30.04;31.43;100171.18;3344262;85;98874;-78
2022/05/23 11:08:45;;;;;;;4.72;2.70;;;;;;;29.96;31.21;100173.63;3328331;86;25940;-78
2022/05/23 11:14:22;;;;;;;5.33;2.70;;;;;;;29.70;30.75;100174.52;3301829;86;98602;-79
2022/05/23 11:19:46;;;;;;;4.28;2.55;;;;;;;29.79;29.84;100172.19;3358702;86;99110;-79
2022/05/23 11:25:16;;;;;;;;;;;;;;;28.76;30.62;100145.83;3313463;86;99101;-78
2022/05/23 11:35:42;;;;;;;4.97;2.58;;;;;;;28.68;31.91;100141.94;3316737;86;71314;-80
2022/05/23 11:41:09;;;;;;;7.83;4.53;;;;;;;28.43;31.32;100140.61;3347593;85;98933;-79
2022/05/23 11:46:12;;;;;;;6.10;3.20;;;;;;;28.89;31.62;100129.78;3347029;85;98885;-79
2022/05/23 11:51:29;;;;;;;7.28;3.15;;;;;;;28.51;30.58;100121.88;3335355;85;98853;-79
2022/05/23 11:56:45;;;;;;;5.33;2.72;;;;;;;28.36;31.60;100109.92;3351989;85;26851;-79
2022/05/23 12:02:04;;;;;;;7.35;2.92;;;;;;;28.45;31.10;100101.27;3347375;86;98849;-79
2022/05/23 12:07:05;;;;;;;7.28;2.72;;;;;;;28.56;31.51;100105.57;3309329;86;98780;-78
2022/05/23 12:12:32;;;;;;;11.38;3.83;;;;;;;28.54;32.11;100091.91;3324678;85;99850;-78
2022/05/23 12:17:34;;;;;;;6.22;3.20;;;;;;;28.58;31.56;100077.51;3310585;86;99020;-80
2022/05/23 12:23:12;;;;;;;7.42;3.22;;;;;;;28.60;31.75;100072.13;3329480;85;99023;-80
2022/05/23 12:28:20;;;;;;;6.15;2.77;;;;;;;28.24;31.24;100068.06;3327536;85;98922;-80
2022/05/23 12:33:23;;;;;;;4.80;2.60;;;;;;;27.39;31.23;100070.61;3311977;86;99250;-80
2022/05/23 12:39:08;;;;;;;9.15;3.55;;;;;;;26.73;32.20;100062.84;3343628;85;26025;-80
2022/05/23 12:44:49;;;;;;;5.72;2.80;;;;;;;27.19;33.61;100052.30;3339853;86;98580;-80
2022/05/23 12:50:12;;;;;;;5.65;2.90;;;;;;;27.59;32.77;100042.89;3336070;86;99166;-80
2022/05/23 12:55:38;;;;;;;5.60;3.08;;;;;;;27.78;32.63;100040.63;3316385;85;99179;-80
2022/05/23 13:01:03;;;;;;;5.83;2.30;;;;;;;27.13;30.86;100035.91;3315072;85;99147;-80
2022/05/23 13:06:22;;;;;;;7.53;2.37;;;;;;;26.36;33.79;100018.70;3359739;86;99402;-80
2022/05/23 13:11:41;;;;;;;5.72;2.58;;;;;;;26.65;33.90;100019.35;3304244;86;99308;-80
2022/05/23 13:16:56;;;;;;;7.58;3.02;;;;;;;26.80;33.05;100018.62;3331028;85;98922;-80
2022/05/23 13:22:07;;;;;;;;;;;;;;;26.07;32.89;100021.05;3340896;86;99266;-80
2022/05/23 13:27:11;;;;;;;4.75;2.40;;;;;;;26.15;33.71;100012.30;3328508;86;26519;-81
2022/05/23 13:32:17;;;;;;;4.95;2.22;;;;;;;26.31;34.56;99996.87;3348032;85;98996;-80
2022/05/23 13:37:28;;;;;;;5.97;2.73;;;;;;;26.01;34.12;99992.62;3333876;86;97689;-80
2022/05/23 13:42:29;;;;;;;6.45;2.45;;;;;;;26.21;35.04;99982.11;3343726;85;98760;-79
2022/05/23 13:47:32;;;;;;;8.28;2.65;;;;;;;26.53;34.87;99973.90;3341407;85;99046;-77
2022/05/23 13:52:44;;;;;;;7.28;2.60;;;;;;;26.22;33.13;99970.95;3287979;86;99552;-77
2022/05/23 13:57:52;;;;;;;4.30;2.10;;;;;;;25.74;33.71;99969.80;3344854;86;98762;-77
2022/05/23 14:03:00;;;;;;;6.17;3.12;;;;;;;25.44;33.70;99952.05;3328716;86;98768;-80
2022/05/23 14:08:03;;;;;;;3.98;2.40;;;;;;;25.22;34.04;99953.09;3344967;85;98979;-78
2022/05/23 14:13:04;;;;;;;5.67;2.70;;;;;;;24.85;35.38;99961.14;3325340;85;99082;-79
2022/05/23 14:18:13;;;;;;;5.33;2.72;;;;;;;25.07;34.86;99951.67;3364487;85;99079;-80
2022/05/23 14:23:19;;;;;;;6.70;2.77;;;;;;;24.61;35.31;99955.45;3348431;85;98724;-79
2022/05/23 14:28:49;;;;;;;8.40;2.55;;;;;;;24.23;35.65;99941.39;3336195;86;99058;-79
2022/05/23 14:33:48;;;;;;;6.20;2.40;;;;;;;24.18;36.07;99940.03;3348979;86;99132;-80
2022/05/23 14:39:03;;;;;;;4.55;2.35;;;;;;;23.83;36.93;99934.80;3342189;86;26368;-80
2022/05/23 14:44:21;;;;;;;4.53;2.15;;;;;;;24.07;37.58;99932.77;3332582;86;98925;-80
2022/05/23 14:49:36;;;;;;;4.95;2.30;;;;;;;23.98;36.52;99928.62;3329860;86;98922;-80
2022/05/23 15:05:35;;;;;;;9.33;2.58;;;;;;;23.85;36.20;99921.05;3352972;85;98775;-80
2022/05/23 15:10:38;;;;;;;4.53;1.90;;;;;;;23.60;35.09;99924.31;3325558;86;98857;-80
2022/05/23 15:15:41;;;;;;;4.58;1.85;;;;;;;23.49;35.88;99919.85;3337150;85;98400;-80
2022/05/23 15:20:43;;;;;;;5.72;2.10;;;;;;;23.37;35.51;99906.81;3340047;86;98562;-80
2022/05/23 15:25:45;;;;;;;7.95;2.50;;;;;;;23.32;35.58;99903.89;3339344;85;98941;-78
2022/05/23 15:30:48;;;;;;;5.37;2.40;;;;;;;23.28;35.13;99908.26;3345748;85;101836;-77
2022/05/23 15:35:49;;;;;;;11.00;2.45;;;;;;;23.06;35.18;99905.54;3364617;86;99395;-81
2022/05/23 15:40:50;;;;;;;7.37;2.30;;;;;;;22.77;35.13;99908.14;3330038;85;99463;-78
2022/05/23 15:45:52;;;;;;;5.08;1.90;;;;;;;22.67;35.61;99901.00;3335225;86;98787;-77
2022/05/23 15:50:53;;;;;;;3.20;1.80;;;;;;;22.27;35.71;99888.56;3328387;85;98494;-78
2022/05/23 15:55:54;;;;;;;3.70;1.80;;;;;;;22.00;35.86;99889.19;3364217;85;98618;-78
2022/05/23 16:00:55;;;;;;;10.20;2.30;;;;;;;22.00;36.52;99875.97;3330304;86;98558;-78
2022/05/23 16:05:56;;;;;;;4.27;2.13;;;;;;;21.91;35.78;99873.80;3367221;85;99226;-77
2022/05/23 16:11:11;;;;;;;6.73;2.07;;;;;;;21.77;36.22;99868.19;3314490;85;99087;-81
2022/05/23 16:16:15;;;;;;;6.10;1.80;;;;;;;21.51;36.73;99875.28;3331149;86;99132;-80
2022/05/23 16:21:17;;;;;;;5.17;1.80;;;;;;;21.38;36.76;99872.45;3352354;86;99098;-81
2022/05/23 16:26:18;;;;;;;2.83;1.50;;;;;;;21.31;36.50;99871.35;3373070;85;25927;-79
2022/05/23 16:31:19;;;;;;;4.60;1.70;;;;;;;21.19;36.30;99859.66;3330760;86;99029;-79
2022/05/23 16:36:35;;;;;;;3.13;1.40;;;;;;;21.04;36.38;99848.88;3331884;85;98750;-78
2022/05/23 16:41:39;;;;;;;4.20;2.35;;;;;;;20.82;36.26;99846.11;3332267;85;98784;-79
2022/05/23 16:46:41;;;;;;;8.03;2.50;;;;;;;20.66;36.77;99837.20;3348441;85;98686;-78
2022/05/23 16:51:43;;;;;;;4.92;2.08;;;;;;;20.29;37.51;99812.47;3350290;85;99070;-79
2022/05/23 16:56:44;;;;;;;4.80;1.70;;;;;;;20.29;37.51;99812.47;3327774;86;25984;-78
2022/05/23 17:01:45;;;;;;;5.23;2.30;;;;;;;20.32;37.81;99833.14;3319380;86;98864;-79
2022/05/23 17:06:46;;;;;;;3.93;1.90;;;;;;;20.19;38.20;99822.64;3334003;86;98994;-78
2022/05/23 17:11:47;;;;;;;4.62;2.00;;;;;;;20.01;38.12;99828.08;3338008;86;98784;-78
2022/05/23 17:16:48;;;;;;;5.33;2.03;;;;;;;19.82;38.42;99818.79;3328323;86;98692;-78
2022/05/23 17:21:49;;;;;;;4.80;2.00;;;;;;;19.65;38.59;99813.83;3329781;85;98584;-78
2022/05/23 17:26:50;;;;;;;4.23;1.70;;;;;;;19.51;39.07;99805.97;3357507;85;33356;-79
2022/05/23 17:31:51;;;;;;;3.58;1.80;;;;;;;19.39;39.72;99807.56;3358087;85;99085;-78
2022/05/23 17:36:52;;;;;;;4.50;1.70;;;;;;;19.22;38.45;99807.55;3355581;86;98987;-78
2022/05/23 17:41:53;;;;;;;4.57;1.60;;;;;;;19.10;38.73;99794.39;3323881;86;99050;-79
2022/05/23 17:46:55;;;;;;;4.17;1.65;;;;;;;18.96;39.38;99788.51;3330318;86;98759;-79
2022/05/23 17:51:56;;;;;;;3.75;1.50;;;;;;;18.88;39.66;99782.38;3320458;85;99204;-79
2022/05/23 17:56:58;;;;;;;4.40;1.60;;;;;;;18.77;40.22;99783.34;3321075;86;29466;-79
2022/05/23 18:01:59;;;;;;;2.65;1.27;;;;;;;18.70;40.32;99777.20;3312533;86;99301;-79
2022/05/23 18:07:00;;;;;;;5.40;2.27;;;;;;;18.66;40.62;99780.11;3340150;85;98486;-80
2022/05/23 18:12:02;;;;;;;9.17;1.77;;;;;;;18.55;40.94;99773.30;3334631;86;98713;-79
2022/05/23 18:22:23;;;;;;;5.55;1.57;;;;;;;18.31;41.66;99764.46;3332508;86;98645;-79
2022/05/23 18:27:24;;;;;;;5.70;1.80;;;;;;;18.17;42.08;99757.16;3345944;86;99271;-80
2022/05/23 18:32:25;;;;;;;4.70;2.00;;;;;;;18.05;42.84;99751.72;3338646;86;98463;-79
2022/05/23 18:37:26;;;;;;;5.97;2.17;;;;;;;17.91;44.32;99751.37;3320436;86;98997;-79
2022/05/23 18:42:27;;;;;;;3.77;2.00;;;;;;;17.77;45.32;99756.73;3330321;86;98871;-79
2022/05/23 18:47:28;;;;;;;4.37;2.00;;;;;;;17.62;44.83;99758.38;3341870;86;98693;-79
2022/05/23 18:52:28;;;;;;;6.30;1.87;;;;;;;17.49;45.40;99760.95;3352391;85;98666;-79
2022/05/23 18:57:30;;;;;;;5.87;2.10;;;;;;;17.35;45.81;99757.11;3336312;86;98643;-79
2022/05/23 19:02:32;;;;;;;2.93;1.60;;;;;;;17.20;45.90;99748.38;3332201;86;98702;-79
2022/05/23 19:07:33;;;;;;;3.87;2.02;;;;;;;17.08;46.04;99749.09;3317156;86;98627;-79
2022/05/23 19:12:34;;;;;;;4.40;2.00;;;;;;;16.96;46.40;99747.63;3341459;86;98900;-79
2022/05/23 19:17:35;;;;;;;4.67;1.93;;;;;;;16.83;46.29;99753.10;3341260;86;99066;-79
2022/05/23 19:22:36;;;;;;;7.03;3.23;;;;;;;16.73;46.81;99749.97;3325419;86;98631;-79
2022/05/23 19:27:37;;;;;;;7.17;2.87;;;;;;;16.60;46.75;99748.32;3337817;85;99228;-78
2022/05/23 19:32:39;;;;;;;10.18;3.33;;;;;;;16.46;47.58;99750.06;3313114;86;98806;-78
2022/05/23 19:37:40;;;;;;;7.65;3.45;;;;;;;16.34;47.63;99755.65;3344511;86;98843;-78
2022/05/23 19:42:42;;;;;;;8.20;2.90;;;;;;;16.19;48.54;99756.41;3334776;85;98609;-79
2022/05/23 19:47:43;;;;;;;7.17;2.97;;;;;;;16.03;49.12;99745.27;3323163;86;98753;-79
2022/05/23 19:52:46;;;;;;;6.28;2.77;;;;;;;15.89;49.62;99747.73;3355213;85;99106;-80
2022/05/23 19:57:49;;;;;;;8.73;3.72;;;;;;;15.75;50.00;99732.00;3328511;86;99269;-79
2022/05/23 20:08:13;;;;;;;6.08;2.33;;;;;;;15.45;51.01;99721.91;3363676;85;98415;-80
2022/05/23 20:13:14;;;;;;;6.78;2.70;;;;;;;15.33;51.28;99725.91;3327218;86;99293;-79
2022/05/23 20:18:19;;;;;;;7.07;3.07;;;;;;;15.20;51.79;99731.88;3361334;86;98615;-79
2022/05/23 20:23:24;;;;;;;6.60;3.05;;;;;;;15.09;52.05;99729.91;3347307;85;98909;-80
2022/05/23 20:28:26;;;;;;;6.83;2.97;;;;;;;14.97;51.96;99729.91;3356469;85;98671;-80
2022/05/23 20:33:27;;;;;;;6.83;2.77;;;;;;;14.86;52.20;99722.39;3337891;86;98859;-80
2022/05/23 20:38:29;;;;;;;8.13;2.90;;;;;;;14.76;52.82;99721.16;3343694;85;29967;-80
2022/05/23 20:43:30;;;;;;;9.58;3.72;;;;;;;14.65;53.19;99728.28;3323928;86;98882;-80
2022/05/23 20:48:31;;;;;;;13.77;5.10;;;;;;;14.55;53.86;99723.70;3332790;86;99232;-80
2022/05/23 20:53:32;;;;;;;7.70;3.70;;;;;;;14.46;54.08;99716.55;3323211;86;99280;-79
2022/05/23 20:58:33;;;;;;;8.67;3.60;;;;;;;14.40;54.94;99713.28;3324618;86;98796;-80
2022/05/23 21:03:37;;;;;;;9.80;3.98;;;;;;;14.30;55.46;99705.92;3334406;85;98959;-80
2022/05/23 21:08:37;;;;;;;8.65;3.52;;;;;;;14.20;56.83;99692.44;3342984;85;31309;-80
2022/05/23 21:13:39;;;;;;;13.47;4.53;;;;;;;14.15;58.07;99698.99;3313915;86;98841;-80
2022/05/23 21:18:40;;;;;;;11.37;4.77;;;;;;;14.10;56.92;99699.46;3333787;85;99097;-80
2022/05/23 21:23:41;;;;;;;8.63;3.87;;;;;;;14.04;58.02;99695.60;3337997;85;99427;-80
2022/05/23 21:28:42;;;;;;;8.50;3.97;;;;;;;14.00;57.95;99708.72;3343411;86;99326;-80
2022/05/23 21:33:43;;;;;;;10.77;4.80;;;;;;;13.93;58.26;99705.45;3350160;86;98727;-80
2022/05/23 21:38:44;;;;;;;10.00;4.70;;;;;;;13.89;58.74;99704.70;3335892;86;26001;-80
2022/05/23 21:49:05;;;;;;;9.93;4.13;;;;;;;13.82;59.22;99708.96;3323757;86;98569;-80
2022/05/23 21:54:07;;;;;;;10.77;4.70;;;;;;;13.78;59.37;99699.92;3346242;86;98670;-80
2022/05/23 21:59:08;;;;;;;10.40;4.75;;;;;;;13.74;59.96;99699.17;3324049;85;98934;-79
2022/05/23 22:04:10;;;;;;;8.23;4.27;;;;;;;13.68;61.40;99693.92;3294824;85;98886;-80
2022/05/23 22:09:12;;;;;;;8.93;4.42;;;;;;;13.64;60.47;99695.98;3358222;85;31894;-79
2022/05/23 22:14:14;;;;;;;7.93;4.43;;;;;;;13.61;60.74;99712.00;3322227;86;99005;-80
2022/05/23 22:19:16;;;;;;;19.13;9.23;;;;;;;13.60;61.06;99719.32;3359330;85;98863;-80
2022/05/23 22:24:17;;;;;;;13.72;7.85;;;;;;;13.57;60.97;99720.92;3320838;86;98798;-80
2022/05/23 22:29:19;;;;;;;11.37;4.83;;;;;;;13.57;61.69;99712.64;3323070;86;98930;-80
2022/05/23 22:34:20;;;;;;;9.90;4.67;;;;;;;13.59;61.61;99714.98;3321593;85;98822;-80
2022/05/23 22:39:21;;;;;;;9.33;4.57;;;;;;;13.61;62.26;99702.91;3312515;86;98708;-81
2022/05/23 22:44:22;;;;;;;7.70;4.00;;;;;;;13.66;62.20;99709.36;3351328;85;98575;-80
2022/05/23 22:49:23;;;;;;;11.33;5.23;;;;;;;13.67;62.20;99716.45;3329956;85;98547;-81
2022/05/23 22:54:40;;;;;;;10.47;5.20;;;;;;;13.67;63.00;99708.16;3339105;86;99344;-80
2022/05/23 22:59:41;;;;;;;;;;;;;;;13.70;63.15;99707.34;3332523;85;99456;-81
2022/05/23 23:04:42;;;;;;;8.30;4.70;;;;;;;13.70;64.70;99698.46;3356517;85;84764;-81
2022/05/23 23:09:43;;;;;;;9.23;4.50;;;;;;;13.70;62.83;99692.14;3354165;85;98800;-80
2022/05/23 23:14:45;;;;;;;10.47;4.70;;;;;;;13.71;63.55;99693.70;3333891;85;98676;-80
2022/05/23 23:19:46;;;;;;;11.47;5.00;;;;;;;13.71;63.55;99687.58;3353987;85;98640;-80
2022/05/23 23:24:47;;;;;;;9.70;5.30;;;;;;;13.71;63.55;99677.11;3348205;86;98698;-80
2022/05/23 23:29:48;;;;;;;10.97;4.97;;;;;;;13.68;63.62;99662.75;3346146;86;99372;-81
2022/05/23 23:40:10;;;;;;;11.67;4.63;;;;;;;13.60;64.60;99645.46;3342389;86;99243;-80
2022/05/23 23:51:08;;;;;;;10.80;4.80;;;;;;;13.53;65.08;99624.04;3338071;86;98880;-80
2022/05/23 23:56:10;;;;;;;8.80;4.67;;;;;;;13.47;64.98;99621.56;3351564;85;99120;-80
